Mcleod Lake, Canada
Current Conditions -  °F | °C
As of 8:07 PM on Saturday 20 Dec 2014 (Local Time) from CYZY Reporting Station
Light Rain Light Rain  
Wind Chill: 29°   Ceiling: 1600
Heat Index: 34°   Visibility: 9mi
Dew Point: 32°   Wind: 6mph
Humidity: 93%   Direction: 200°SSW
Pressure: 29.22"   Gusts: NA
Location:  55°N, 123.03°W
Report Text: CYZY 210407Z AUTO 20005KT 9SM -RA OVC016 01/00 A2922 RMK SLP926
Loading
Personal Weather Stations






























Interactive Weather Map New forecast layout! Learn more

10-Day Weather Forecast

Advertisements
Track Severe Weather on mobile